Time;durP1;ratioP1;P1;durP2;ratioP2;P2;SDS_P1;SDS_P2;PMS_P1;PMS_P2;Temp;Humidity;BMP_temperature;BMP_pressure;BME280_temperature;BME280_humidity;BME280_pressure;Samples;Min_cycle;Max_cycle;Signal;HPM_P1;HPM_P2
2023/08/03 00:02:34;;;;;;;22.92;17.25;;;;;;;19.96;98.94;98557.66;4937935;28;20046;-67
2023/08/03 00:05:03;;;;;;;20.98;17.60;;;;;;;19.95;98.64;98523.53;4936699;28;20043;-66
2023/08/03 00:07:29;;;;;;;24.50;17.30;;;;;;;19.93;98.21;98569.72;4935812;28;20039;-69
2023/08/03 00:09:55;;;;;;;24.85;17.83;;;;;;;19.92;98.14;98561.78;4936233;28;20051;-68
2023/08/03 00:12:24;;;;;;;22.98;16.88;;;;;;;19.93;98.34;98569.72;4933226;28;20047;-68
2023/08/03 00:14:53;;;;;;;20.33;16.95;;;;;;;19.92;98.22;98578.00;4935273;28;20049;-66
2023/08/03 00:17:19;;;;;;;23.67;16.60;;;;;;;19.91;98.02;98550.13;4937614;28;20050;-68
2023/08/03 00:19:44;;;;;;;23.00;16.52;;;;;;;19.93;98.08;98547.22;4937542;28;20049;-66
2023/08/03 00:22:13;;;;;;;19.70;17.08;;;;;;;19.93;98.23;98567.00;4935123;28;20050;-67
2023/08/03 00:25:04;;;;;;;22.43;16.23;;;;;;;19.91;98.29;98550.13;4937518;28;20050;-68
2023/08/03 00:27:31;;;;;;;24.67;17.23;;;;;;;19.88;98.15;98522.63;4932609;28;20042;-67
2023/08/03 00:29:59;;;;;;;20.52;15.45;;;;;;;19.86;98.19;98557.16;4935349;28;20050;-71
2023/08/03 00:32:26;;;;;;;19.20;16.65;;;;;;;19.82;98.46;98535.06;4937510;28;20057;-65
2023/08/03 00:34:54;;;;;;;22.88;17.42;;;;;;;19.79;98.46;98546.28;4937316;28;20057;-65
2023/08/03 00:37:25;;;;;;;19.08;16.33;;;;;;;19.73;97.92;98557.88;4947879;28;20053;-67
2023/08/03 00:39:53;;;;;;;21.23;17.05;;;;;;;19.73;98.24;98557.06;4955012;28;20050;-69
2023/08/03 00:42:21;;;;;;;21.55;16.35;;;;;;;19.67;98.41;98574.88;4949199;28;20309;-68
2023/08/03 00:44:47;;;;;;;27.80;17.88;;;;;;;19.68;98.53;98549.50;4934445;28;20057;-68
2023/08/03 00:47:13;;;;;;;25.85;17.50;;;;;;;19.66;98.82;98546.16;4937993;28;20038;-68
2023/08/03 00:49:39;;;;;;;24.08;16.00;;;;;;;19.66;99.00;98543.44;4936202;28;20512;-69
2023/08/03 00:52:07;;;;;;;19.67;15.98;;;;;;;19.65;99.23;98512.03;4936912;28;20741;-68
2023/08/03 00:54:32;;;;;;;25.27;17.60;;;;;;;19.64;99.22;98550.91;4935891;28;20062;-68
2023/08/03 00:56:58;;;;;;;24.15;16.90;;;;;;;19.60;99.18;98556.91;4916626;28;20547;-69
2023/08/03 00:59:24;;;;;;;21.15;16.15;;;;;;;19.55;98.98;98561.03;4936297;28;20437;-68
2023/08/03 01:01:53;;;;;;;22.52;17.65;;;;;;;19.54;98.84;98542.28;4933877;28;20039;-68
2023/08/03 01:04:19;;;;;;;23.02;18.08;;;;;;;19.53;98.74;98548.72;4933355;28;20047;-68
2023/08/03 01:06:46;;;;;;;22.98;17.85;;;;;;;19.53;99.34;98551.44;4936636;28;20058;-68
2023/08/03 01:09:13;;;;;;;23.48;17.98;;;;;;;19.51;99.33;98545.41;4932675;28;20042;-69
2023/08/03 01:11:41;;;;;;;24.20;18.40;;;;;;;19.50;99.22;98554.53;4935841;28;20043;-69
2023/08/03 01:14:06;;;;;;;23.63;17.50;;;;;;;19.49;99.22;98563.69;4923941;28;20039;-67
2023/08/03 01:16:31;;;;;;;22.70;18.23;;;;;;;19.52;99.38;98552.50;4919678;28;20061;-67
2023/08/03 01:18:59;;;;;;;24.67;17.92;;;;;;;19.50;99.05;98562.66;4935505;28;20478;-69
2023/08/03 01:21:27;;;;;;;23.52;18.10;;;;;;;19.50;99.04;98562.66;4935424;28;20081;-69
2023/08/03 01:23:53;;;;;;;26.85;18.13;;;;;;;19.51;98.82;98559.75;4935705;28;20383;-69
2023/08/03 01:26:18;;;;;;;25.75;19.58;;;;;;;19.53;98.77;98551.44;4935150;28;20053;-67
2023/08/03 01:28:45;;;;;;;26.00;17.92;;;;;;;19.51;98.31;98553.50;4919185;28;20050;-76
2023/08/03 01:31:10;;;;;;;24.00;17.60;;;;;;;19.49;98.36;98550.16;4932494;28;20065;-72
2023/08/03 01:33:38;;;;;;;25.98;19.52;;;;;;;19.48;98.61;98549.31;4935231;28;20051;-68
2023/08/03 01:36:04;;;;;;;24.67;18.05;;;;;;;19.49;98.58;98551.00;4942960;28;20050;-65
2023/08/03 01:38:29;;;;;;;26.08;18.35;;;;;;;19.48;98.48;98551.16;4954994;28;20401;-68
2023/08/03 01:40:59;;;;;;;23.33;19.08;;;;;;;19.48;99.09;98554.72;4938018;28;20062;-68
2023/08/03 01:43:28;;;;;;;22.77;17.80;;;;;;;19.43;99.12;98545.47;4938465;28;20615;-68
2023/08/03 01:46:00;;;;;;;24.85;18.83;;;;;;;19.42;99.42;98549.22;4954604;28;20050;-68
2023/08/03 01:48:31;;;;;;;24.17;17.92;;;;;;;19.41;99.33;98571.88;4957673;28;20045;-70
2023/08/03 01:50:57;;;;;;;21.58;18.60;;;;;;;19.40;99.06;98589.13;4955663;28;20417;-69
2023/08/03 01:53:23;;;;;;;22.75;18.23;;;;;;;19.35;99.31;98591.56;4921146;28;20058;-69
2023/08/03 01:55:49;;;;;;;24.27;18.17;;;;;;;19.30;98.88;98588.59;4939324;28;20049;-67
2023/08/03 01:58:39;;;;;;;27.30;20.33;;;;;;;19.31;98.72;98588.38;4938496;28;20050;-67
2023/08/03 02:01:04;;;;;;;28.08;19.60;;;;;;;19.36;97.86;98585.13;4939164;28;20046;-68
2023/08/03 02:03:30;;;;;;;24.45;19.52;;;;;;;19.30;97.38;98594.81;4922509;28;20497;-67
2023/08/03 02:05:57;;;;;;;27.30;19.58;;;;;;;19.29;97.64;98598.56;4906480;28;20398;-68
2023/08/03 02:08:23;;;;;;;27.00;18.15;;;;;;;19.29;97.53;98592.34;4938619;28;20058;-64
2023/08/03 02:10:48;;;;;;;30.88;20.90;;;;;;;19.30;97.14;98599.41;4938084;28;20062;-68
2023/08/03 02:13:13;;;;;;;27.23;19.38;;;;;;;19.31;97.11;98596.50;4939118;28;20061;-68
2023/08/03 02:15:40;;;;;;;29.70;20.95;;;;;;;19.36;96.58;98604.03;4938819;28;20054;-68
2023/08/03 02:18:09;;;;;;;21.70;17.63;;;;;;;19.39;96.76;98598.25;4938852;28;20058;-68
2023/08/03 02:20:34;;;;;;;24.20;18.45;;;;;;;19.41;96.73;98591.63;4939744;28;20046;-68
2023/08/03 02:23:00;;;;;;;24.25;18.88;;;;;;;19.44;96.76;98598.50;4938990;28;20128;-70
2023/08/03 02:25:26;;;;;;;23.02;16.50;;;;;;;19.48;96.41;98608.78;4939809;28;20047;-67
2023/08/03 02:28:18;;;;;;;21.92;19.10;;;;;;;19.53;96.20;98594.69;4939969;28;20066;-67
2023/08/03 02:30:45;;;;;;;21.25;17.15;;;;;;;19.56;95.98;98627.59;4939167;28;20057;-72
2023/08/03 02:33:14;;;;;;;22.55;18.05;;;;;;;19.61;95.76;98585.63;4939166;28;20054;-74
2023/08/03 02:35:42;;;;;;;22.08;16.65;;;;;;;19.66;95.57;98600.22;4879761;29;20443;-73
2023/08/03 02:43:56;;;;;;;21.65;15.95;;;;;;;19.83;95.05;98601.66;4872473;29;20043;-70
2023/08/03 02:46:26;;;;;;;;;;;;;;;20.04;94.82;98602.69;4898444;29;20056;-69
2023/08/03 02:48:51;;;;;;;22.40;16.42;;;;;;;20.04;94.44;98599.97;4865555;29;19919;-70
2023/08/03 02:51:26;;;;;;;22.13;16.73;;;;;;;20.14;93.67;98609.41;4880512;29;20383;-68
2023/08/03 02:54:23;;;;;;;19.17;16.35;;;;;;;20.36;93.33;98612.94;4880084;29;20059;-69
2023/08/03 02:57:19;;;;;;;20.75;15.95;;;;;;;20.43;92.67;98613.81;4887076;29;20058;-70
2023/08/03 03:00:16;;;;;;;18.13;14.82;;;;;;;20.54;90.83;98607.88;4888010;29;20063;-69
2023/08/03 03:05:39;;;;;;;15.70;13.68;;;;;;;20.57;88.41;98614.75;4884515;28;20062;-69
2023/08/03 03:08:17;;;;;;;16.08;12.50;;;;;;;20.48;87.70;98622.22;4938036;28;20054;-69
2023/08/03 03:10:45;;;;;;;17.27;12.95;;;;;;;20.38;87.13;98621.72;4937999;28;20410;-69
2023/08/03 03:13:10;;;;;;;14.40;12.50;;;;;;;20.33;86.99;98597.06;4938128;28;20050;-69
2023/08/03 03:15:41;;;;;;;15.93;12.50;;;;;;;20.29;86.78;98614.75;4937933;28;20047;-69
2023/08/03 03:18:09;;;;;;;17.80;13.15;;;;;;;20.24;86.75;98620.75;4937661;28;20054;-69
2023/08/03 03:20:38;;;;;;;15.65;13.48;;;;;;;20.22;86.20;98611.97;4938757;28;20050;-70
2023/08/03 03:23:09;;;;;;;15.60;12.00;;;;;;;20.16;86.13;98609.22;4922385;28;20050;-70
2023/08/03 03:25:38;;;;;;;16.15;12.68;;;;;;;20.15;86.33;98631.91;4921233;28;20043;-70
2023/08/03 03:28:07;;;;;;;13.52;11.48;;;;;;;20.18;86.60;98621.53;4921612;28;20054;-70
2023/08/03 03:30:37;;;;;;;13.73;11.73;;;;;;;20.22;86.76;98601.16;4937533;28;20043;-70
2023/08/03 03:33:27;;;;;;;15.30;13.32;;;;;;;20.38;86.75;98616.31;4938906;28;20050;-69
2023/08/03 03:36:03;;;;;;;16.43;12.67;;;;;;;20.53;86.09;98629.75;4937433;28;20047;-69
2023/08/03 03:38:28;;;;;;;14.02;11.98;;;;;;;20.65;85.26;98611.91;4937470;28;20289;-70
2023/08/03 03:40:55;;;;;;;17.23;12.75;;;;;;;20.79;84.41;98608.22;4937502;28;20414;-70
2023/08/03 03:43:21;;;;;;;15.20;11.95;;;;;;;20.94;83.71;98599.97;4938415;28;20031;-70
2023/08/03 03:46:37;;;;;;;13.70;11.70;;;;;;;21.27;82.92;98605.56;4938329;28;20051;-69
2023/08/03 03:49:08;;;;;;;13.73;11.00;;;;;;;21.38;82.09;98608.53;4937517;28;20066;-70
2023/08/03 03:51:33;;;;;;;13.18;10.65;;;;;;;21.51;81.23;98602.31;4937284;28;20413;-71
2023/08/03 03:54:28;;;;;;;14.02;10.27;;;;;;;21.76;80.17;98607.16;4921154;28;20054;-72
2023/08/03 03:56:55;;;;;;;11.38;10.18;;;;;;;21.79;79.64;98609.44;4937046;28;20049;-71
2023/08/03 03:59:21;;;;;;;14.57;11.32;;;;;;;21.88;78.58;98597.38;4921579;28;20418;-71
2023/08/03 04:02:11;;;;;;;12.18;10.25;;;;;;;22.04;78.14;98603.25;4924036;28;20055;-69
2023/08/03 04:04:36;;;;;;;12.60;9.77;;;;;;;22.22;77.28;98599.94;4936763;28;20058;-69
2023/08/03 04:07:04;;;;;;;12.98;9.50;;;;;;;22.41;77.13;98604.50;4936844;28;20046;-70
2023/08/03 04:10:01;;;;;;;13.80;9.45;;;;;;;22.72;75.95;98606.53;4936343;28;20050;-71
2023/08/03 04:12:30;;;;;;;11.95;9.20;;;;;;;22.80;75.72;98592.75;4919072;29;20041;-73
2023/08/03 04:14:57;;;;;;;10.95;8.80;;;;;;;22.96;74.85;98601.50;4933670;28;20039;-71
2023/08/03 04:17:22;;;;;;;15.43;9.38;;;;;;;23.11;73.98;98591.19;4918771;29;20054;-70
2023/08/03 04:19:52;;;;;;;13.73;8.88;;;;;;;23.26;73.14;98585.47;4918658;29;20050;-71
2023/08/03 04:22:24;;;;;;;12.52;9.38;;;;;;;23.44;72.76;98605.47;4918609;29;20066;-69
2023/08/03 04:24:49;;;;;;;9.77;8.23;;;;;;;23.67;72.41;98593.25;4918618;29;20047;-70
2023/08/03 04:27:14;;;;;;;8.68;7.78;;;;;;;23.93;71.47;98597.69;4933360;28;20058;-69
2023/08/03 04:29:42;;;;;;;11.10;8.55;;;;;;;24.11;70.47;98605.91;4917483;28;20055;-69
2023/08/03 04:32:09;;;;;;;9.70;7.30;;;;;;;24.24;69.53;98603.94;4936559;28;20042;-68
2023/08/03 04:34:40;;;;;;;8.80;7.57;;;;;;;24.49;68.58;98597.66;4936501;28;20394;-68
2023/08/03 04:37:10;;;;;;;13.02;8.15;;;;;;;24.81;68.10;98607.38;4936563;28;20046;-69
2023/08/03 04:40:04;;;;;;;11.30;7.43;;;;;;;25.14;67.20;98598.03;4938746;28;20057;-71
2023/08/03 04:42:36;;;;;;;11.98;8.52;;;;;;;25.41;65.71;98599.34;4950226;28;20641;-67
2023/08/03 04:45:06;;;;;;;10.75;7.80;;;;;;;25.61;64.76;98596.41;4936123;28;20046;-68
2023/08/03 04:47:56;;;;;;;10.65;8.38;;;;;;;25.97;63.34;98603.59;4937066;28;20058;-69
2023/08/03 04:50:49;;;;;;;12.23;8.93;;;;;;;26.20;62.29;98611.84;4937553;28;20058;-68
2023/08/03 04:53:20;;;;;;;13.75;10.15;;;;;;;26.43;60.86;98593.84;4919872;28;20062;-68
2023/08/03 04:55:48;;;;;;;12.48;9.52;;;;;;;26.57;60.80;98606.22;4919558;28;20043;-68
2023/08/03 04:58:19;;;;;;;11.30;9.20;;;;;;;26.84;60.02;98582.78;4938519;28;20046;-69
2023/08/03 05:00:48;;;;;;;11.55;8.75;;;;;;;27.21;58.98;98587.97;4935583;28;20058;-69
2023/08/03 05:03:13;;;;;;;12.52;8.95;;;;;;;27.60;57.61;98572.63;4936947;28;20046;-71
2023/08/03 05:05:38;;;;;;;10.20;8.27;;;;;;;27.96;57.45;98565.88;4935831;28;20498;-70
2023/08/03 05:08:11;;;;;;;10.70;8.48;;;;;;;28.21;56.78;98591.00;4903940;28;20429;-70
2023/08/03 05:10:41;;;;;;;9.75;7.80;;;;;;;28.47;56.03;98562.06;4934995;28;20057;-70
2023/08/03 05:13:08;;;;;;;9.77;8.50;;;;;;;28.65;55.38;98580.19;4935786;28;20051;-70
2023/08/03 05:16:05;;;;;;;11.02;9.07;;;;;;;28.85;54.83;98567.59;4935723;28;20047;-70
2023/08/03 05:18:37;;;;;;;11.60;8.95;;;;;;;28.76;54.10;98565.53;4935683;28;20053;-70
2023/08/03 05:21:04;;;;;;;11.57;9.10;;;;;;;28.94;54.15;98557.00;4934250;28;20046;-70
2023/08/03 05:23:30;;;;;;;14.27;8.63;;;;;;;29.20;54.07;98583.72;4934785;28;20533;-70
2023/08/03 05:25:57;;;;;;;13.77;9.30;;;;;;;29.43;53.01;98554.34;4936574;28;20062;-71
2023/08/03 05:28:24;;;;;;;13.20;9.95;;;;;;;29.64;52.41;98569.97;4934856;28;20189;-72
2023/08/03 05:30:50;;;;;;;12.45;9.20;;;;;;;29.79;51.77;98548.13;4935105;28;20498;-70
2023/08/03 05:36:12;;;;;;;12.35;8.35;;;;;;;30.07;51.63;98560.78;4935634;28;20417;-70
2023/08/03 05:38:39;;;;;;;13.20;9.02;;;;;;;30.16;50.63;98547.38;4936776;28;20757;-70
2023/08/03 05:41:15;;;;;;;9.80;7.82;;;;;;;30.33;50.98;98542.56;4940102;28;20497;-70
2023/08/03 05:43:48;;;;;;;10.98;8.60;;;;;;;30.53;49.67;98564.75;4946929;28;20050;-71
2023/08/03 05:46:17;;;;;;;11.65;7.80;;;;;;;30.71;49.81;98543.38;4945049;28;20058;-71
2023/08/03 05:48:48;;;;;;;13.90;8.40;;;;;;;30.86;48.37;98565.47;4937850;28;20053;-71
2023/08/03 05:51:24;;;;;;;11.45;7.32;;;;;;;31.34;48.23;98551.41;4936747;28;20050;-70
2023/08/03 05:53:54;;;;;;;9.75;7.97;;;;;;;31.94;46.65;98549.09;4936049;28;20101;-71
2023/08/03 05:56:22;;;;;;;18.08;9.82;;;;;;;31.94;45.74;98552.66;4935975;28;20054;-71
2023/08/03 05:59:20;;;;;;;11.88;7.50;;;;;;;32.35;45.86;98563.72;4935333;28;20047;-71
2023/08/03 06:02:42;;;;;;;10.75;8.13;;;;;;;32.99;44.54;98568.59;4939563;28;20061;-71
2023/08/03 06:05:35;;;;;;;10.48;7.85;;;;;;;33.47;43.69;98562.34;4934424;28;20055;-71
2023/08/03 06:08:01;;;;;;;15.32;8.15;;;;;;;33.51;42.41;98581.94;4936472;28;20038;-72
2023/08/03 06:10:27;;;;;;;13.57;8.30;;;;;;;33.93;41.87;98556.56;4918896;28;20058;-71
2023/08/03 06:12:53;;;;;;;8.15;6.85;;;;;;;34.40;41.08;98558.69;4935272;28;20042;-72
2023/08/03 06:15:20;;;;;;;18.48;8.73;;;;;;;34.79;40.29;98580.72;4936225;28;20046;-72
2023/08/03 06:17:47;;;;;;;9.00;6.18;;;;;;;35.48;39.81;98571.06;4934589;28;20055;-72
2023/08/03 06:20:13;;;;;;;11.43;7.43;;;;;;;36.20;38.15;98557.81;4902659;28;20440;-72
2023/08/03 06:22:39;;;;;;;7.03;6.32;;;;;;;36.95;37.37;98554.81;4902164;28;20073;-72
2023/08/03 06:25:09;;;;;;;7.80;6.43;;;;;;;37.14;36.16;98565.00;4936520;28;20051;-72
2023/08/03 06:36:15;;;;;;;;;;;;;;;36.71;37.79;98556.94;4938743;28;20045;-71
2023/08/03 06:39:05;;;;;;;12.10;8.18;;;;;;;36.92;36.40;98572.09;4939723;28;19925;-70
2023/08/03 06:41:34;;;;;;;8.30;7.13;;;;;;;36.82;35.29;98580.63;4937879;28;20054;-70
2023/08/03 06:44:04;;;;;;;11.45;6.63;;;;;;;37.57;33.76;98560.78;4938137;28;20050;-71
2023/08/03 06:46:37;;;;;;;9.80;8.13;;;;;;;37.56;33.69;98570.25;4939528;28;20528;-71
2023/08/03 06:49:02;;;;;;;11.82;7.90;;;;;;;37.51;33.44;98602.91;4938447;28;20444;-70
2023/08/03 06:51:28;;;;;;;12.93;7.13;;;;;;;37.17;33.46;98556.06;4925167;28;20054;-71
2023/08/03 06:53:57;;;;;;;17.67;9.00;;;;;;;37.09;33.67;98554.81;4939500;28;20457;-71
2023/08/03 06:56:25;;;;;;;8.45;7.35;;;;;;;37.09;34.12;98552.03;4938283;28;20031;-71
2023/08/03 06:58:54;;;;;;;12.95;7.70;;;;;;;37.03;34.05;98559.66;4939381;28;20058;-71
2023/08/03 07:01:20;;;;;;;9.55;7.32;;;;;;;37.09;33.29;98563.97;4921761;28;20436;-70
2023/08/03 07:03:46;;;;;;;12.88;8.25;;;;;;;36.98;33.55;98543.09;4938043;28;20046;-70
2023/08/03 07:06:13;;;;;;;7.75;6.95;;;;;;;37.52;33.15;98540.59;4922155;28;20516;-71
2023/08/03 07:08:38;;;;;;;8.38;7.30;;;;;;;38.28;31.97;98552.72;4922139;28;20524;-70
2023/08/03 07:11:08;;;;;;;7.90;6.93;;;;;;;39.10;31.23;98569.78;4939782;28;20038;-69
2023/08/03 07:13:36;;;;;;;10.80;7.78;;;;;;;37.64;31.85;98550.06;4905939;28;20066;-70
2023/08/03 07:16:09;;;;;;;7.93;7.13;;;;;;;36.89;33.91;98564.41;4937501;28;20413;-70
2023/08/03 07:18:40;;;;;;;12.07;8.15;;;;;;;36.05;34.82;98551.69;4939270;28;20047;-69
2023/08/03 07:21:07;;;;;;;18.27;7.47;;;;;;;36.11;35.19;98544.94;4938613;28;20058;-71
2023/08/03 07:23:58;;;;;;;10.15;7.05;;;;;;;37.62;33.94;98545.94;4939075;28;20051;-73
2023/08/03 07:26:23;;;;;;;10.57;7.85;;;;;;;37.29;32.84;98542.47;4921180;28;20055;-68
2023/08/03 07:28:50;;;;;;;9.02;7.50;;;;;;;36.66;34.24;98551.47;4920679;28;20054;-68
2023/08/03 07:31:18;;;;;;;8.73;7.47;;;;;;;34.48;37.37;98546.97;4938861;28;20050;-69
2023/08/03 07:34:32;;;;;;;11.52;7.60;;;;;;;33.06;42.32;98549.81;4938753;28;20054;-69
2023/08/03 07:37:27;;;;;;;8.15;6.65;;;;;;;30.94;44.12;98554.78;4932992;28;20043;-71
2023/08/03 07:42:48;;;;;;;8.68;7.68;;;;;;;29.30;50.02;98554.72;4919257;29;20486;-71
2023/08/03 07:45:13;;;;;;;9.23;7.45;;;;;;;29.57;50.75;98561.91;4917213;28;20058;-71
2023/08/03 07:47:39;;;;;;;8.32;6.70;;;;;;;31.13;48.21;98540.59;4919544;29;20047;-70
2023/08/03 07:50:05;;;;;;;8.35;7.07;;;;;;;32.41;44.81;98549.63;4919260;29;20494;-70
2023/08/03 07:52:56;;;;;;;11.55;7.50;;;;;;;33.72;41.16;98550.31;4932085;28;20057;-72
2023/08/03 07:55:25;;;;;;;10.35;7.65;;;;;;;34.46;41.25;98542.84;4938443;28;20037;-71
2023/08/03 07:57:51;;;;;;;9.98;7.13;;;;;;;35.10;39.53;98536.09;4904952;28;20043;-69
2023/08/03 08:00:17;;;;;;;12.25;7.43;;;;;;;35.19;38.53;98550.94;4920875;28;20530;-71
2023/08/03 08:02:45;;;;;;;8.75;7.85;;;;;;;35.57;37.88;98557.34;4938052;28;20437;-70
2023/08/03 08:05:37;;;;;;;10.80;8.13;;;;;;;35.26;36.25;98540.31;4938092;28;20046;-71
2023/08/03 08:08:04;;;;;;;9.85;7.47;;;;;;;35.39;38.30;98545.13;4938064;28;20489;-70
2023/08/03 08:10:29;;;;;;;8.55;7.70;;;;;;;35.72;37.65;98526.63;4938046;28;20038;-70
2023/08/03 08:12:54;;;;;;;10.25;8.18;;;;;;;35.50;38.55;98531.97;4937870;28;20117;-71
2023/08/03 08:15:19;;;;;;;9.20;8.32;;;;;;;34.90;39.80;98539.91;4936479;28;20046;-72
2023/08/03 08:17:44;;;;;;;9.60;8.40;;;;;;;34.38;39.78;98543.47;4936380;28;20409;-70
2023/08/03 08:20:59;;;;;;;9.85;7.70;;;;;;;34.00;41.38;98534.91;4936588;28;20047;-72
2023/08/03 08:23:29;;;;;;;13.10;7.60;;;;;;;33.39;42.08;98553.81;4898421;29;20051;-70
2023/08/03 08:25:56;;;;;;;14.85;8.32;;;;;;;33.57;41.96;98552.31;4898254;29;20051;-70
2023/08/03 08:28:24;;;;;;;10.93;7.63;;;;;;;34.54;41.39;98544.97;4899502;29;20039;-70
2023/08/03 08:30:51;;;;;;;8.85;7.20;;;;;;;34.76;39.91;98531.50;4898152;29;20039;-68
2023/08/03 08:33:19;;;;;;;7.97;7.15;;;;;;;35.07;39.85;98531.94;4913905;29;20066;-69
2023/08/03 08:35:48;;;;;;;9.10;7.97;;;;;;;34.67;38.83;98522.13;4899306;29;20042;-67
2023/08/03 08:38:16;;;;;;;10.80;7.40;;;;;;;34.38;38.79;98529.66;4879214;29;20044;-69
2023/08/03 08:40:47;;;;;;;9.27;6.95;;;;;;;34.27;39.65;98534.44;4879121;29;20419;-69
2023/08/03 08:43:12;;;;;;;10.18;8.30;;;;;;;34.81;38.52;98534.19;4880491;29;20048;-68
2023/08/03 08:45:38;;;;;;;10.57;8.32;;;;;;;35.85;37.10;98525.91;4880341;29;20051;-69
2023/08/03 08:48:05;;;;;;;8.65;7.47;;;;;;;36.91;34.82;98526.00;4880227;29;20407;-70
2023/08/03 08:53:25;;;;;;;8.27;7.23;;;;;;;35.30;37.21;98541.38;4879372;29;20415;-71
2023/08/03 08:55:52;;;;;;;9.68;7.47;;;;;;;34.38;39.23;98544.31;4894825;29;20284;-70
2023/08/03 08:58:19;;;;;;;14.52;7.53;;;;;;;33.44;40.92;98531.69;4880514;29;20789;-71
2023/08/03 09:00:49;;;;;;;8.88;7.32;;;;;;;33.52;40.16;98534.66;4880189;29;20055;-71
2023/08/03 09:03:17;;;;;;;8.50;7.32;;;;;;;34.38;38.99;98543.47;4880057;29;20495;-70
2023/08/03 09:05:57;;;;;;;10.05;7.75;;;;;;;35.49;35.96;98550.53;4878790;29;20059;-71
2023/08/03 09:08:29;;;;;;;8.10;7.30;;;;;;;36.26;34.41;98528.84;4880142;29;20443;-70
2023/08/03 09:10:58;;;;;;;13.85;8.82;;;;;;;37.17;33.94;98533.84;4894705;29;20047;-71
2023/08/03 09:13:32;;;;;;;10.85;7.25;;;;;;;36.44;33.52;98531.91;4885584;29;20050;-71
2023/08/03 09:16:23;;;;;;;8.23;7.40;;;;;;;35.25;36.06;98533.97;4898722;29;20055;-70
2023/08/03 09:18:48;;;;;;;7.57;6.65;;;;;;;32.98;40.30;98531.84;4898702;29;20058;-70
2023/08/03 09:21:19;;;;;;;11.93;7.80;;;;;;;31.93;41.07;98525.38;4900420;28;20058;-70
2023/08/03 09:23:49;;;;;;;7.80;6.72;;;;;;;31.50;41.93;98524.72;4954678;28;20066;-70
2023/08/03 09:26:23;;;;;;;10.23;7.38;;;;;;;31.44;43.18;98533.25;4956370;28;20042;-70
2023/08/03 09:28:55;;;;;;;8.75;6.70;;;;;;;33.60;40.32;98513.91;4955199;28;20050;-69
2023/08/03 09:31:25;;;;;;;10.95;7.22;;;;;;;36.47;35.06;98525.72;4954981;28;20056;-70
2023/08/03 09:34:00;;;;;;;10.38;7.85;;;;;;;38.71;31.51;98516.81;4930058;28;20039;-70
2023/08/03 09:36:28;;;;;;;7.95;7.18;;;;;;;40.95;28.42;98539.28;4937067;28;20053;-69
2023/08/03 09:39:10;;;;;;;8.85;7.88;;;;;;;42.07;26.27;98524.56;4935595;28;20051;-71
2023/08/03 09:41:36;;;;;;;9.45;8.02;;;;;;;42.65;25.44;98501.06;4936703;28;20058;-73
2023/08/03 09:44:07;;;;;;;9.15;8.40;;;;;;;42.91;24.63;98516.75;4936697;28;20050;-71
2023/08/03 09:46:38;;;;;;;9.07;8.25;;;;;;;43.61;23.10;98537.91;4936580;28;20046;-72
2023/08/03 09:49:05;;;;;;;8.95;8.15;;;;;;;43.46;23.67;98519.78;4936540;28;20043;-73
2023/08/03 09:51:31;;;;;;;10.38;9.32;;;;;;;42.07;24.73;98524.56;4935281;28;20038;-73
2023/08/03 09:54:09;;;;;;;10.63;8.20;;;;;;;41.43;24.98;98524.03;4936801;28;20050;-74
2023/08/03 09:56:39;;;;;;;10.07;9.07;;;;;;;41.42;25.72;98519.63;4936497;28;20046;-72
2023/08/03 09:59:10;;;;;;;9.35;8.50;;;;;;;41.62;25.21;98524.44;4935035;28;20051;-72
2023/08/03 10:02:07;;;;;;;10.05;9.15;;;;;;;41.91;25.57;98526.34;4903243;28;20062;-70
2023/08/03 10:04:42;;;;;;;11.77;8.93;;;;;;;41.48;25.67;98523.84;4934895;28;20047;-69
2023/08/03 10:07:10;;;;;;;9.20;8.45;;;;;;;41.84;25.36;98526.91;4935181;28;20498;-70
2023/08/03 10:09:46;;;;;;;9.27;8.48;;;;;;;41.86;25.07;98518.16;4956983;28;20038;-69
2023/08/03 10:12:22;;;;;;;9.95;9.07;;;;;;;41.82;24.87;98517.19;4938913;28;20049;-73
2023/08/03 10:14:53;;;;;;;12.43;9.18;;;;;;;40.61;26.26;98512.25;4923117;28;20059;-75
2023/08/03 10:17:46;;;;;;;9.02;8.20;;;;;;;38.85;27.89;98509.13;4935919;28;20050;-73
2023/08/03 10:20:14;;;;;;;9.07;8.18;;;;;;;37.06;29.94;98534.03;4931042;28;20050;-75
2023/08/03 10:23:12;;;;;;;8.77;7.53;;;;;;;36.46;31.44;98516.56;4930442;28;20058;-74
2023/08/03 10:25:51;;;;;;;9.13;7.03;;;;;;;35.95;32.44;98519.38;4927429;28;20414;-74
2023/08/03 10:28:23;;;;;;;8.10;7.30;;;;;;;36.23;32.39;98504.47;4928909;28;20046;-75
2023/08/03 10:31:04;;;;;;;8.98;8.02;;;;;;;37.00;31.89;98526.13;4931312;28;20051;-76
2023/08/03 10:33:55;;;;;;;11.20;7.30;;;;;;;35.49;33.66;98505.34;4930567;28;20039;-74
2023/08/03 10:36:29;;;;;;;8.40;7.60;;;;;;;34.94;34.43;98511.34;4928211;28;20051;-74
2023/08/03 10:42:28;;;;;;;8.70;7.78;;;;;;;33.99;36.38;98511.13;4937590;28;20053;-74
2023/08/03 10:45:21;;;;;;;9.93;7.22;;;;;;;33.47;37.54;98515.34;4935984;28;20509;-73
2023/08/03 10:48:34;;;;;;;9.35;8.23;;;;;;;33.04;37.55;98524.41;4939418;28;20058;-73
2023/08/03 10:51:02;;;;;;;11.23;7.68;;;;;;;32.50;38.57;98519.56;4939496;28;20053;-73
2023/08/03 10:53:52;;;;;;;9.85;7.45;;;;;;;31.93;39.63;98504.16;4936877;28;20053;-71
2023/08/03 10:56:19;;;;;;;9.43;7.53;;;;;;;31.51;40.45;98509.00;4920765;28;20046;-75
2023/08/03 10:58:47;;;;;;;13.10;8.27;;;;;;;31.46;41.34;98511.78;4939637;28;20043;-74
2023/08/03 11:01:25;;;;;;;8.25;7.40;;;;;;;31.64;41.74;98512.09;4939221;28;20135;-74
2023/08/03 11:03:51;;;;;;;9.95;7.28;;;;;;;31.50;42.05;98480.63;4938250;28;20042;-75
2023/08/03 11:06:18;;;;;;;11.85;7.53;;;;;;;31.49;42.00;98492.75;4939420;28;20042;-72
2023/08/03 11:08:47;;;;;;;9.57;7.65;;;;;;;31.12;42.03;98495.72;4947451;28;20071;-71
2023/08/03 11:11:22;;;;;;;10.73;7.43;;;;;;;30.98;41.76;98498.09;4947144;28;20061;-73
2023/08/03 11:14:40;;;;;;;8.32;7.30;;;;;;;30.87;42.40;98503.84;4942641;28;20054;-70
2023/08/03 11:17:05;;;;;;;10.00;7.65;;;;;;;30.59;42.05;98505.88;4935894;28;20109;-69
2023/08/03 11:19:38;;;;;;;11.00;7.47;;;;;;;30.77;41.58;98496.38;4935952;28;20425;-74
2023/08/03 11:22:05;;;;;;;9.40;8.00;;;;;;;30.44;41.75;98499.47;4937990;28;20050;-74
2023/08/03 11:24:34;;;;;;;8.20;7.40;;;;;;;30.11;43.24;98500.63;4939498;28;20055;-72
2023/08/03 11:27:24;;;;;;;9.25;7.70;;;;;;;29.92;44.10;98497.38;4935046;28;20039;-72
2023/08/03 11:29:55;;;;;;;10.13;8.13;;;;;;;29.93;43.80;98483.41;4936167;28;20062;-74
2023/08/03 11:32:31;;;;;;;11.68;7.63;;;;;;;29.84;45.01;98486.88;4937839;28;20046;-73
2023/08/03 11:35:10;;;;;;;10.32;8.07;;;;;;;29.84;45.19;98490.47;4919930;28;20497;-74
2023/08/03 11:37:37;;;;;;;15.05;7.75;;;;;;;29.73;45.17;98488.72;4936217;28;20046;-76
2023/08/03 11:40:11;;;;;;;9.32;7.93;;;;;;;29.52;45.67;98486.88;4936909;28;20042;-67
2023/08/03 11:42:43;;;;;;;14.65;7.88;;;;;;;29.39;45.56;98488.13;4937192;28;20401;-71
2023/08/03 11:45:12;;;;;;;15.80;8.77;;;;;;;29.23;44.82;98478.06;4938631;28;20051;-68
2023/08/03 11:47:43;;;;;;;11.27;7.63;;;;;;;29.17;45.24;98490.88;4935211;28;20039;-67
2023/08/03 11:50:12;;;;;;;9.02;7.72;;;;;;;29.18;45.54;98503.53;4924377;28;20054;-67
2023/08/03 11:52:38;;;;;;;13.98;7.78;;;;;;;29.16;45.37;98477.41;4937452;28;20038;-67
2023/08/03 11:55:04;;;;;;;11.82;9.10;;;;;;;29.18;45.24;98486.22;4935485;28;20093;-67
2023/08/03 12:00:22;;;;;;;10.27;7.60;;;;;;;29.23;44.44;98487.09;4938225;28;20166;-68
2023/08/03 12:02:47;;;;;;;10.82;7.78;;;;;;;29.11;45.30;98488.34;4936662;28;20057;-68
2023/08/03 12:05:16;;;;;;;9.05;7.55;;;;;;;29.19;44.90;98480.47;4906550;28;20390;-67
2023/08/03 12:07:54;;;;;;;12.27;7.95;;;;;;;29.06;45.84;98483.63;4931062;28;20485;-67
2023/08/03 12:10:21;;;;;;;13.75;7.85;;;;;;;28.88;46.18;98508.66;4937281;28;20394;-67
2023/08/03 12:12:47;;;;;;;9.73;7.65;;;;;;;28.92;46.66;98487.84;4936344;28;20046;-68
2023/08/03 12:15:14;;;;;;;14.93;7.70;;;;;;;28.96;46.83;98472.53;4937351;28;20065;-68
2023/08/03 12:17:40;;;;;;;8.77;7.53;;;;;;;28.97;46.34;98467.88;4936870;28;20552;-67
2023/08/03 12:20:09;;;;;;;10.30;8.57;;;;;;;29.05;46.05;98470.97;4935083;28;20043;-68